Torsdagen den 30 mars 2017 (Holger, Holmfrid)

Blekinge Flygklubb
Eringsbodavägen 16 B
372 92 Kallinge
Org.nr. 835600-0144

Det finns inget på Anslagstavlan.

Väder ESDF

METAR
ESDF 301950Z 24005KT 0700 R01/1800N R19/1900N FG OVC001 07/07 Q1016

TAF
ESDF AAB 301909Z 3019/3022 17008KT 2000 -RADZ OVC002 TEMPO 3019/3022 0300 FG

Förgasaris
Svår is vid alla effekter

METAR | TAF | Nordic SWC | Väderstatistik

Inhämta alltid aktuellt väder hos LFV innan du flyger.

NOTAM för kommande 24h

+ = 0-3 dgr | - = >3 dgr gammal
Endast VFR. Kontrollera alltid hos LFV.